sensor_id;sensor_type;location;lat;lon;timestamp;P1;durP1;ratioP1;P2;durP2;ratioP2
20986;SDS011;10652;50.306;8.570;2022-10-31T00:01:18;6.45;;;3.45;;
20986;SDS011;10652;50.306;8.570;2022-10-31T00:05:23;8.40;;;4.07;;
20986;SDS011;10652;50.306;8.570;2022-10-31T00:09:25;8.07;;;3.17;;
20986;SDS011;10652;50.306;8.570;2022-10-31T00:13:27;6.85;;;3.30;;
20986;SDS011;10652;50.306;8.570;2022-10-31T00:17:29;14.80;;;8.32;;
20986;SDS011;10652;50.306;8.570;2022-10-31T00:21:32;16.20;;;9.35;;
20986;SDS011;10652;50.306;8.570;2022-10-31T00:25:36;11.50;;;6.03;;
20986;SDS011;10652;50.306;8.570;2022-10-31T00:29:40;9.05;;;4.70;;
20986;SDS011;10652;50.306;8.570;2022-10-31T00:33:42;6.05;;;4.00;;
20986;SDS011;10652;50.306;8.570;2022-10-31T00:37:44;9.40;;;4.10;;
20986;SDS011;10652;50.306;8.570;2022-10-31T00:41:46;6.72;;;3.85;;
20986;SDS011;10652;50.306;8.570;2022-10-31T00:45:48;6.03;;;3.78;;
20986;SDS011;10652;50.306;8.570;2022-10-31T00:49:50;5.47;;;3.50;;
20986;SDS011;10652;50.306;8.570;2022-10-31T00:53:52;9.20;;;3.90;;
20986;SDS011;10652;50.306;8.570;2022-10-31T00:57:54;8.45;;;3.92;;
20986;SDS011;10652;50.306;8.570;2022-10-31T01:01:57;8.68;;;4.13;;
20986;SDS011;10652;50.306;8.570;2022-10-31T01:06:01;6.30;;;4.10;;
20986;SDS011;10652;50.306;8.570;2022-10-31T01:10:07;6.72;;;3.50;;
20986;SDS011;10652;50.306;8.570;2022-10-31T01:14:10;5.70;;;3.17;;
20986;SDS011;10652;50.306;8.570;2022-10-31T01:18:12;8.00;;;3.50;;
20986;SDS011;10652;50.306;8.570;2022-10-31T01:22:14;10.05;;;5.75;;
20986;SDS011;10652;50.306;8.570;2022-10-31T01:26:17;9.07;;;3.70;;
20986;SDS011;10652;50.306;8.570;2022-10-31T01:30:22;6.70;;;3.30;;
20986;SDS011;10652;50.306;8.570;2022-10-31T01:34:24;6.28;;;3.13;;
20986;SDS011;10652;50.306;8.570;2022-10-31T01:38:26;4.35;;;2.70;;
20986;SDS011;10652;50.306;8.570;2022-10-31T01:42:28;7.47;;;2.90;;
20986;SDS011;10652;50.306;8.570;2022-10-31T01:46:37;7.22;;;4.03;;
20986;SDS011;10652;50.306;8.570;2022-10-31T01:50:42;9.88;;;3.97;;
20986;SDS011;10652;50.306;8.570;2022-10-31T01:54:49;8.02;;;3.70;;
20986;SDS011;10652;50.306;8.570;2022-10-31T01:58:56;6.60;;;3.08;;
20986;SDS011;10652;50.306;8.570;2022-10-31T02:03:01;6.72;;;3.22;;
20986;SDS011;10652;50.306;8.570;2022-10-31T02:07:09;9.60;;;3.67;;
20986;SDS011;10652;50.306;8.570;2022-10-31T02:11:16;5.57;;;3.42;;
20986;SDS011;10652;50.306;8.570;2022-10-31T02:15:18;6.55;;;3.72;;
20986;SDS011;10652;50.306;8.570;2022-10-31T02:36:20;5.20;;;3.50;;
20986;SDS011;10652;50.306;8.570;2022-10-31T02:40:39;9.77;;;3.50;;
20986;SDS011;10652;50.306;8.570;2022-10-31T02:45:14;9.05;;;3.75;;
20986;SDS011;10652;50.306;8.570;2022-10-31T02:49:45;6.70;;;3.50;;
20986;SDS011;10652;50.306;8.570;2022-10-31T02:54:23;7.57;;;3.38;;
20986;SDS011;10652;50.306;8.570;2022-10-31T02:58:29;7.00;;;3.53;;
20986;SDS011;10652;50.306;8.570;2022-10-31T03:03:00;6.57;;;3.30;;
20986;SDS011;10652;50.306;8.570;2022-10-31T03:07:23;8.60;;;3.40;;
20986;SDS011;10652;50.306;8.570;2022-10-31T03:11:46;6.75;;;3.40;;
20986;SDS011;10652;50.306;8.570;2022-10-31T03:16:16;7.38;;;3.25;;
20986;SDS011;10652;50.306;8.570;2022-10-31T03:20:43;8.07;;;3.35;;
20986;SDS011;10652;50.306;8.570;2022-10-31T03:24:49;6.60;;;3.55;;
20986;SDS011;10652;50.306;8.570;2022-10-31T03:28:58;8.50;;;3.00;;
20986;SDS011;10652;50.306;8.570;2022-10-31T03:33:18;6.38;;;2.90;;
20986;SDS011;10652;50.306;8.570;2022-10-31T03:37:27;5.90;;;3.00;;
20986;SDS011;10652;50.306;8.570;2022-10-31T03:41:35;6.07;;;2.90;;
20986;SDS011;10652;50.306;8.570;2022-10-31T03:45:44;6.30;;;3.40;;
20986;SDS011;10652;50.306;8.570;2022-10-31T03:49:48;5.88;;;3.05;;
20986;SDS011;10652;50.306;8.570;2022-10-31T03:58:18;8.10;;;3.40;;
20986;SDS011;10652;50.306;8.570;2022-10-31T04:02:26;8.18;;;3.47;;
20986;SDS011;10652;50.306;8.570;2022-10-31T04:06:33;7.88;;;3.03;;
20986;SDS011;10652;50.306;8.570;2022-10-31T04:10:37;7.05;;;3.30;;
20986;SDS011;10652;50.306;8.570;2022-10-31T04:14:43;8.68;;;3.03;;
20986;SDS011;10652;50.306;8.570;2022-10-31T04:18:49;8.80;;;2.85;;
20986;SDS011;10652;50.306;8.570;2022-10-31T04:22:51;7.85;;;3.22;;
20986;SDS011;10652;50.306;8.570;2022-10-31T04:26:53;6.93;;;2.97;;
20986;SDS011;10652;50.306;8.570;2022-10-31T04:30:57;6.93;;;3.13;;
20986;SDS011;10652;50.306;8.570;2022-10-31T04:34:59;9.57;;;3.47;;
20986;SDS011;10652;50.306;8.570;2022-10-31T04:39:03;7.03;;;3.20;;
20986;SDS011;10652;50.306;8.570;2022-10-31T04:43:14;5.93;;;2.78;;
20986;SDS011;10652;50.306;8.570;2022-10-31T04:47:18;5.47;;;2.72;;
20986;SDS011;10652;50.306;8.570;2022-10-31T04:51:20;6.93;;;3.13;;
20986;SDS011;10652;50.306;8.570;2022-10-31T04:55:22;5.00;;;2.72;;
20986;SDS011;10652;50.306;8.570;2022-10-31T04:59:44;10.18;;;3.25;;
20986;SDS011;10652;50.306;8.570;2022-10-31T05:03:46;5.75;;;3.10;;
20986;SDS011;10652;50.306;8.570;2022-10-31T05:07:49;7.32;;;3.30;;
20986;SDS011;10652;50.306;8.570;2022-10-31T05:11:53;7.78;;;3.30;;
20986;SDS011;10652;50.306;8.570;2022-10-31T05:16:15;8.57;;;3.63;;
20986;SDS011;10652;50.306;8.570;2022-10-31T05:20:35;7.20;;;3.50;;
20986;SDS011;10652;50.306;8.570;2022-10-31T05:24:48;9.95;;;3.80;;
20986;SDS011;10652;50.306;8.570;2022-10-31T05:28:50;9.30;;;3.78;;
20986;SDS011;10652;50.306;8.570;2022-10-31T05:32:52;8.43;;;3.78;;
20986;SDS011;10652;50.306;8.570;2022-10-31T05:37:13;10.00;;;3.70;;
20986;SDS011;10652;50.306;8.570;2022-10-31T05:41:16;7.20;;;3.80;;
20986;SDS011;10652;50.306;8.570;2022-10-31T05:45:21;8.98;;;3.30;;
20986;SDS011;10652;50.306;8.570;2022-10-31T05:49:31;8.60;;;3.80;;
20986;SDS011;10652;50.306;8.570;2022-10-31T05:54:11;5.40;;;3.17;;
20986;SDS011;10652;50.306;8.570;2022-10-31T05:58:18;7.55;;;3.40;;
20986;SDS011;10652;50.306;8.570;2022-10-31T06:02:37;6.22;;;2.88;;
20986;SDS011;10652;50.306;8.570;2022-10-31T06:07:03;8.02;;;3.42;;
20986;SDS011;10652;50.306;8.570;2022-10-31T06:11:05;7.68;;;3.75;;
20986;SDS011;10652;50.306;8.570;2022-10-31T06:15:25;7.65;;;3.10;;
20986;SDS011;10652;50.306;8.570;2022-10-31T06:19:29;7.13;;;3.50;;
20986;SDS011;10652;50.306;8.570;2022-10-31T06:23:32;8.25;;;3.80;;
20986;SDS011;10652;50.306;8.570;2022-10-31T06:28:00;7.13;;;3.53;;
20986;SDS011;10652;50.306;8.570;2022-10-31T06:32:12;7.55;;;3.60;;
20986;SDS011;10652;50.306;8.570;2022-10-31T06:36:17;10.95;;;3.50;;
20986;SDS011;10652;50.306;8.570;2022-10-31T06:40:19;7.63;;;3.78;;
20986;SDS011;10652;50.306;8.570;2022-10-31T06:44:51;8.35;;;4.47;;
20986;SDS011;10652;50.306;8.570;2022-10-31T06:49:05;11.63;;;4.88;;
20986;SDS011;10652;50.306;8.570;2022-10-31T06:53:15;11.88;;;5.20;;
20986;SDS011;10652;50.306;8.570;2022-10-31T06:57:17;10.75;;;4.68;;
20986;SDS011;10652;50.306;8.570;2022-10-31T07:01:20;9.55;;;4.53;;
20986;SDS011;10652;50.306;8.570;2022-10-31T07:05:23;9.85;;;4.90;;
20986;SDS011;10652;50.306;8.570;2022-10-31T07:09:26;10.75;;;4.80;;
20986;SDS011;10652;50.306;8.570;2022-10-31T07:13:30;9.65;;;4.25;;
20986;SDS011;10652;50.306;8.570;2022-10-31T07:17:40;8.25;;;4.25;;
20986;SDS011;10652;50.306;8.570;2022-10-31T07:21:43;8.10;;;4.30;;
20986;SDS011;10652;50.306;8.570;2022-10-31T07:25:48;8.45;;;4.47;;
20986;SDS011;10652;50.306;8.570;2022-10-31T07:33:57;11.55;;;4.97;;
20986;SDS011;10652;50.306;8.570;2022-10-31T07:38:06;10.32;;;4.45;;
20986;SDS011;10652;50.306;8.570;2022-10-31T07:42:10;10.95;;;4.28;;
20986;SDS011;10652;50.306;8.570;2022-10-31T07:46:17;10.95;;;4.28;;
20986;SDS011;10652;50.306;8.570;2022-10-31T07:50:38;13.32;;;4.90;;
20986;SDS011;10652;50.306;8.570;2022-10-31T07:54:59;8.43;;;4.30;;
20986;SDS011;10652;50.306;8.570;2022-10-31T07:59:01;11.48;;;4.45;;
20986;SDS011;10652;50.306;8.570;2022-10-31T08:03:04;10.57;;;3.72;;
20986;SDS011;10652;50.306;8.570;2022-10-31T08:07:35;9.45;;;4.43;;
20986;SDS011;10652;50.306;8.570;2022-10-31T08:11:42;12.15;;;4.93;;
20986;SDS011;10652;50.306;8.570;2022-10-31T08:15:44;11.63;;;5.30;;
20986;SDS011;10652;50.306;8.570;2022-10-31T08:19:51;11.88;;;5.25;;
20986;SDS011;10652;50.306;8.570;2022-10-31T08:23:57;11.52;;;5.13;;
20986;SDS011;10652;50.306;8.570;2022-10-31T08:28:00;11.60;;;5.10;;
20986;SDS011;10652;50.306;8.570;2022-10-31T08:32:03;11.45;;;5.35;;
20986;SDS011;10652;50.306;8.570;2022-10-31T08:36:40;13.40;;;4.10;;
20986;SDS011;10652;50.306;8.570;2022-10-31T08:44:50;8.85;;;3.88;;
20986;SDS011;10652;50.306;8.570;2022-10-31T08:48:55;10.38;;;4.25;;
20986;SDS011;10652;50.306;8.570;2022-10-31T08:53:31;10.05;;;3.70;;
20986;SDS011;10652;50.306;8.570;2022-10-31T08:57:40;7.88;;;3.63;;
20986;SDS011;10652;50.306;8.570;2022-10-31T09:01:44;9.43;;;3.90;;
20986;SDS011;10652;50.306;8.570;2022-10-31T09:05:46;8.77;;;3.67;;
20986;SDS011;10652;50.306;8.570;2022-10-31T09:09:49;8.55;;;4.00;;
20986;SDS011;10652;50.306;8.570;2022-10-31T09:13:53;10.55;;;3.60;;
20986;SDS011;10652;50.306;8.570;2022-10-31T09:18:33;9.80;;;4.07;;
20986;SDS011;10652;50.306;8.570;2022-10-31T09:22:35;9.35;;;4.00;;
20986;SDS011;10652;50.306;8.570;2022-10-31T09:26:37;8.43;;;4.13;;
20986;SDS011;10652;50.306;8.570;2022-10-31T09:30:50;8.05;;;4.10;;
20986;SDS011;10652;50.306;8.570;2022-10-31T09:35:13;9.98;;;3.85;;
20986;SDS011;10652;50.306;8.570;2022-10-31T09:39:15;8.77;;;3.95;;
20986;SDS011;10652;50.306;8.570;2022-10-31T09:52:13;8.75;;;3.60;;
20986;SDS011;10652;50.306;8.570;2022-10-31T09:56:22;11.57;;;3.83;;
20986;SDS011;10652;50.306;8.570;2022-10-31T10:00:30;8.68;;;3.88;;
20986;SDS011;10652;50.306;8.570;2022-10-31T10:08:56;8.50;;;4.07;;
20986;SDS011;10652;50.306;8.570;2022-10-31T10:17:44;11.52;;;3.70;;
20986;SDS011;10652;50.306;8.570;2022-10-31T10:22:06;7.43;;;3.13;;
20986;SDS011;10652;50.306;8.570;2022-10-31T10:26:21;9.00;;;3.17;;
20986;SDS011;10652;50.306;8.570;2022-10-31T10:30:30;8.60;;;3.22;;
20986;SDS011;10652;50.306;8.570;2022-10-31T10:34:43;9.98;;;3.22;;
20986;SDS011;10652;50.306;8.570;2022-10-31T10:47:37;6.97;;;3.15;;
20986;SDS011;10652;50.306;8.570;2022-10-31T11:01:14;11.48;;;3.22;;
20986;SDS011;10652;50.306;8.570;2022-10-31T11:09:32;8.23;;;2.72;;
20986;SDS011;10652;50.306;8.570;2022-10-31T11:13:35;7.38;;;2.60;;
20986;SDS011;10652;50.306;8.570;2022-10-31T11:17:39;6.63;;;3.03;;
20986;SDS011;10652;50.306;8.570;2022-10-31T11:21:42;7.88;;;2.92;;
20986;SDS011;10652;50.306;8.570;2022-10-31T11:30:05;9.05;;;2.83;;
20986;SDS011;10652;50.306;8.570;2022-10-31T11:34:16;7.28;;;2.58;;
20986;SDS011;10652;50.306;8.570;2022-10-31T11:38:32;6.43;;;2.80;;
20986;SDS011;10652;50.306;8.570;2022-10-31T11:42:41;6.28;;;2.90;;
20986;SDS011;10652;50.306;8.570;2022-10-31T11:46:57;9.52;;;2.97;;
20986;SDS011;10652;50.306;8.570;2022-10-31T11:51:02;8.07;;;2.78;;
20986;SDS011;10652;50.306;8.570;2022-10-31T11:59:30;7.47;;;2.78;;
20986;SDS011;10652;50.306;8.570;2022-10-31T12:03:48;7.95;;;2.55;;
20986;SDS011;10652;50.306;8.570;2022-10-31T12:07:55;5.95;;;2.78;;
20986;SDS011;10652;50.306;8.570;2022-10-31T12:20:35;7.00;;;2.90;;
20986;SDS011;10652;50.306;8.570;2022-10-31T12:24:53;8.60;;;2.92;;
20986;SDS011;10652;50.306;8.570;2022-10-31T12:45:59;7.35;;;2.50;;
20986;SDS011;10652;50.306;8.570;2022-10-31T12:54:28;7.85;;;2.50;;
20986;SDS011;10652;50.306;8.570;2022-10-31T13:02:57;7.05;;;2.33;;
20986;SDS011;10652;50.306;8.570;2022-10-31T13:07:52;5.13;;;2.53;;
20986;SDS011;10652;50.306;8.570;2022-10-31T13:11:41;9.23;;;2.90;;
20986;SDS011;10652;50.306;8.570;2022-10-31T13:15:48;5.88;;;2.65;;
20986;SDS011;10652;50.306;8.570;2022-10-31T13:19:54;7.77;;;2.70;;
20986;SDS011;10652;50.306;8.570;2022-10-31T13:24:25;5.88;;;2.38;;
20986;SDS011;10652;50.306;8.570;2022-10-31T13:28:43;7.70;;;2.40;;
20986;SDS011;10652;50.306;8.570;2022-10-31T13:37:01;8.38;;;2.65;;
20986;SDS011;10652;50.306;8.570;2022-10-31T13:45:32;9.52;;;2.50;;
20986;SDS011;10652;50.306;8.570;2022-10-31T13:53:44;6.85;;;3.00;;
20986;SDS011;10652;50.306;8.570;2022-10-31T13:57:58;7.72;;;3.00;;
20986;SDS011;10652;50.306;8.570;2022-10-31T14:02:02;7.22;;;2.85;;
20986;SDS011;10652;50.306;8.570;2022-10-31T14:06:16;8.80;;;2.90;;
20986;SDS011;10652;50.306;8.570;2022-10-31T14:10:20;8.15;;;4.05;;
20986;SDS011;10652;50.306;8.570;2022-10-31T14:14:29;11.25;;;4.85;;
20986;SDS011;10652;50.306;8.570;2022-10-31T14:18:36;6.78;;;3.70;;
20986;SDS011;10652;50.306;8.570;2022-10-31T14:22:41;10.32;;;5.60;;
20986;SDS011;10652;50.306;8.570;2022-10-31T14:26:51;7.70;;;3.42;;
20986;SDS011;10652;50.306;8.570;2022-10-31T14:30:59;8.00;;;3.05;;
20986;SDS011;10652;50.306;8.570;2022-10-31T14:35:02;10.50;;;2.90;;
20986;SDS011;10652;50.306;8.570;2022-10-31T14:39:11;7.15;;;3.42;;
20986;SDS011;10652;50.306;8.570;2022-10-31T14:43:27;9.95;;;3.45;;
20986;SDS011;10652;50.306;8.570;2022-10-31T14:47:39;7.45;;;3.17;;
20986;SDS011;10652;50.306;8.570;2022-10-31T14:52:08;9.70;;;3.70;;
20986;SDS011;10652;50.306;8.570;2022-10-31T14:56:20;7.07;;;2.88;;
20986;SDS011;10652;50.306;8.570;2022-10-31T15:00:26;13.30;;;3.65;;
20986;SDS011;10652;50.306;8.570;2022-10-31T15:04:30;8.80;;;3.55;;
20986;SDS011;10652;50.306;8.570;2022-10-31T15:12:39;10.88;;;3.83;;
20986;SDS011;10652;50.306;8.570;2022-10-31T15:16:41;9.10;;;3.75;;
20986;SDS011;10652;50.306;8.570;2022-10-31T15:20:45;9.70;;;3.63;;
20986;SDS011;10652;50.306;8.570;2022-10-31T15:24:48;8.70;;;3.65;;
20986;SDS011;10652;50.306;8.570;2022-10-31T15:29:01;13.93;;;3.95;;
20986;SDS011;10652;50.306;8.570;2022-10-31T15:37:49;12.38;;;6.20;;
20986;SDS011;10652;50.306;8.570;2022-10-31T15:41:52;8.30;;;4.30;;
20986;SDS011;10652;50.306;8.570;2022-10-31T15:45:56;9.27;;;3.80;;
20986;SDS011;10652;50.306;8.570;2022-10-31T15:49:59;9.60;;;4.93;;
20986;SDS011;10652;50.306;8.570;2022-10-31T15:54:02;11.82;;;5.65;;
20986;SDS011;10652;50.306;8.570;2022-10-31T15:58:10;9.55;;;5.30;;
20986;SDS011;10652;50.306;8.570;2022-10-31T16:02:18;12.88;;;4.90;;
20986;SDS011;10652;50.306;8.570;2022-10-31T16:06:23;8.35;;;4.20;;
20986;SDS011;10652;50.306;8.570;2022-10-31T16:10:25;6.40;;;4.55;;
20986;SDS011;10652;50.306;8.570;2022-10-31T16:14:29;12.20;;;4.68;;
20986;SDS011;10652;50.306;8.570;2022-10-31T16:18:35;14.98;;;7.32;;
20986;SDS011;10652;50.306;8.570;2022-10-31T16:22:39;10.73;;;5.43;;
20986;SDS011;10652;50.306;8.570;2022-10-31T16:26:41;8.30;;;4.40;;
20986;SDS011;10652;50.306;8.570;2022-10-31T16:30:48;9.65;;;4.28;;
20986;SDS011;10652;50.306;8.570;2022-10-31T16:34:57;11.23;;;4.68;;
20986;SDS011;10652;50.306;8.570;2022-10-31T16:39:03;8.73;;;4.20;;
20986;SDS011;10652;50.306;8.570;2022-10-31T16:43:08;12.35;;;4.55;;
20986;SDS011;10652;50.306;8.570;2022-10-31T16:47:13;11.07;;;4.80;;
20986;SDS011;10652;50.306;8.570;2022-10-31T16:51:17;11.73;;;5.07;;
20986;SDS011;10652;50.306;8.570;2022-10-31T16:55:19;15.45;;;4.85;;
20986;SDS011;10652;50.306;8.570;2022-10-31T16:59:22;9.43;;;4.90;;
20986;SDS011;10652;50.306;8.570;2022-10-31T17:03:24;12.23;;;4.82;;
20986;SDS011;10652;50.306;8.570;2022-10-31T17:07:26;8.48;;;4.47;;
20986;SDS011;10652;50.306;8.570;2022-10-31T17:11:28;7.82;;;4.32;;
20986;SDS011;10652;50.306;8.570;2022-10-31T17:15:42;10.10;;;5.43;;
20986;SDS011;10652;50.306;8.570;2022-10-31T17:19:46;14.38;;;5.18;;
20986;SDS011;10652;50.306;8.570;2022-10-31T17:23:48;10.90;;;5.75;;
20986;SDS011;10652;50.306;8.570;2022-10-31T17:27:51;12.27;;;7.65;;
20986;SDS011;10652;50.306;8.570;2022-10-31T17:31:53;9.63;;;5.47;;
20986;SDS011;10652;50.306;8.570;2022-10-31T17:35:56;10.45;;;5.72;;
20986;SDS011;10652;50.306;8.570;2022-10-31T17:39:58;10.45;;;5.63;;
20986;SDS011;10652;50.306;8.570;2022-10-31T17:44:00;12.10;;;6.07;;
20986;SDS011;10652;50.306;8.570;2022-10-31T17:48:02;14.82;;;7.63;;
20986;SDS011;10652;50.306;8.570;2022-10-31T17:52:05;10.98;;;7.57;;
20986;SDS011;10652;50.306;8.570;2022-10-31T17:56:08;9.23;;;6.22;;
20986;SDS011;10652;50.306;8.570;2022-10-31T18:00:19;13.85;;;5.50;;
20986;SDS011;10652;50.306;8.570;2022-10-31T18:04:23;11.65;;;8.10;;
20986;SDS011;10652;50.306;8.570;2022-10-31T18:08:34;10.60;;;5.75;;
20986;SDS011;10652;50.306;8.570;2022-10-31T18:12:38;9.30;;;5.80;;
20986;SDS011;10652;50.306;8.570;2022-10-31T18:16:40;13.00;;;8.77;;
20986;SDS011;10652;50.306;8.570;2022-10-31T18:20:42;9.80;;;6.28;;
20986;SDS011;10652;50.306;8.570;2022-10-31T18:24:44;9.25;;;5.43;;
20986;SDS011;10652;50.306;8.570;2022-10-31T18:28:46;12.82;;;6.85;;
20986;SDS011;10652;50.306;8.570;2022-10-31T18:32:49;15.18;;;9.70;;
20986;SDS011;10652;50.306;8.570;2022-10-31T18:36:52;11.93;;;6.68;;
20986;SDS011;10652;50.306;8.570;2022-10-31T18:40:54;13.90;;;6.05;;
20986;SDS011;10652;50.306;8.570;2022-10-31T18:44:56;10.95;;;5.43;;
20986;SDS011;10652;50.306;8.570;2022-10-31T18:49:07;11.07;;;5.82;;
20986;SDS011;10652;50.306;8.570;2022-10-31T18:53:09;12.27;;;6.35;;
20986;SDS011;10652;50.306;8.570;2022-10-31T18:57:12;12.55;;;6.30;;
20986;SDS011;10652;50.306;8.570;2022-10-31T19:01:15;11.18;;;5.55;;
20986;SDS011;10652;50.306;8.570;2022-10-31T19:05:18;9.23;;;5.45;;
20986;SDS011;10652;50.306;8.570;2022-10-31T19:09:23;9.63;;;5.13;;
20986;SDS011;10652;50.306;8.570;2022-10-31T19:13:26;10.70;;;4.95;;
20986;SDS011;10652;50.306;8.570;2022-10-31T19:17:28;6.85;;;5.07;;
20986;SDS011;10652;50.306;8.570;2022-10-31T19:21:30;11.32;;;6.07;;
20986;SDS011;10652;50.306;8.570;2022-10-31T19:25:33;9.45;;;5.35;;
20986;SDS011;10652;50.306;8.570;2022-10-31T19:29:35;12.07;;;5.65;;
20986;SDS011;10652;50.306;8.570;2022-10-31T19:33:37;9.05;;;5.35;;
20986;SDS011;10652;50.306;8.570;2022-10-31T19:37:39;8.23;;;5.30;;
20986;SDS011;10652;50.306;8.570;2022-10-31T19:41:41;10.35;;;5.43;;
20986;SDS011;10652;50.306;8.570;2022-10-31T19:45:51;9.15;;;5.15;;
20986;SDS011;10652;50.306;8.570;2022-10-31T19:49:54;9.98;;;5.65;;
20986;SDS011;10652;50.306;8.570;2022-10-31T19:53:56;13.15;;;6.18;;
20986;SDS011;10652;50.306;8.570;2022-10-31T19:57:59;13.82;;;6.40;;
20986;SDS011;10652;50.306;8.570;2022-10-31T20:02:03;11.68;;;6.20;;
20986;SDS011;10652;50.306;8.570;2022-10-31T20:06:05;12.18;;;6.38;;
20986;SDS011;10652;50.306;8.570;2022-10-31T20:10:08;10.30;;;6.03;;
20986;SDS011;10652;50.306;8.570;2022-10-31T20:14:14;13.77;;;6.25;;
20986;SDS011;10652;50.306;8.570;2022-10-31T20:22:20;8.63;;;6.00;;
20986;SDS011;10652;50.306;8.570;2022-10-31T20:26:22;12.15;;;7.35;;
20986;SDS011;10652;50.306;8.570;2022-10-31T20:30:24;11.30;;;6.55;;
20986;SDS011;10652;50.306;8.570;2022-10-31T20:34:27;11.65;;;6.10;;
20986;SDS011;10652;50.306;8.570;2022-10-31T20:38:29;10.23;;;6.80;;
20986;SDS011;10652;50.306;8.570;2022-10-31T20:42:31;14.70;;;6.55;;
20986;SDS011;10652;50.306;8.570;2022-10-31T20:46:33;13.10;;;6.50;;
20986;SDS011;10652;50.306;8.570;2022-10-31T20:50:36;14.30;;;6.50;;
20986;SDS011;10652;50.306;8.570;2022-10-31T20:54:39;10.32;;;7.13;;
20986;SDS011;10652;50.306;8.570;2022-10-31T20:58:42;10.05;;;6.28;;
20986;SDS011;10652;50.306;8.570;2022-10-31T21:02:44;13.27;;;7.10;;
20986;SDS011;10652;50.306;8.570;2022-10-31T21:06:47;13.25;;;8.00;;
20986;SDS011;10652;50.306;8.570;2022-10-31T21:10:50;12.13;;;6.93;;
20986;SDS011;10652;50.306;8.570;2022-10-31T21:14:52;15.88;;;8.18;;
20986;SDS011;10652;50.306;8.570;2022-10-31T21:18:55;13.25;;;6.65;;
20986;SDS011;10652;50.306;8.570;2022-10-31T21:22:57;13.32;;;6.47;;
20986;SDS011;10652;50.306;8.570;2022-10-31T21:26:59;11.63;;;6.20;;
20986;SDS011;10652;50.306;8.570;2022-10-31T21:31:07;16.48;;;6.90;;
20986;SDS011;10652;50.306;8.570;2022-10-31T21:35:11;12.23;;;6.72;;
20986;SDS011;10652;50.306;8.570;2022-10-31T21:39:13;11.68;;;6.75;;
20986;SDS011;10652;50.306;8.570;2022-10-31T21:43:15;10.30;;;6.40;;
20986;SDS011;10652;50.306;8.570;2022-10-31T21:47:17;11.85;;;6.45;;
20986;SDS011;10652;50.306;8.570;2022-10-31T21:51:20;10.43;;;6.95;;
20986;SDS011;10652;50.306;8.570;2022-10-31T21:55:24;12.52;;;6.70;;
20986;SDS011;10652;50.306;8.570;2022-10-31T21:59:26;19.73;;;12.43;;
20986;SDS011;10652;50.306;8.570;2022-10-31T22:03:28;13.48;;;10.05;;
20986;SDS011;10652;50.306;8.570;2022-10-31T22:07:31;16.02;;;9.13;;
20986;SDS011;10652;50.306;8.570;2022-10-31T22:11:33;12.07;;;7.15;;
20986;SDS011;10652;50.306;8.570;2022-10-31T22:15:35;15.80;;;8.20;;
20986;SDS011;10652;50.306;8.570;2022-10-31T22:19:38;15.10;;;7.38;;
20986;SDS011;10652;50.306;8.570;2022-10-31T22:23:40;17.73;;;7.78;;
20986;SDS011;10652;50.306;8.570;2022-10-31T22:27:42;11.70;;;7.53;;
20986;SDS011;10652;50.306;8.570;2022-10-31T22:31:45;15.40;;;8.15;;
20986;SDS011;10652;50.306;8.570;2022-10-31T22:35:54;15.70;;;8.27;;
20986;SDS011;10652;50.306;8.570;2022-10-31T22:39:56;12.43;;;7.38;;
20986;SDS011;10652;50.306;8.570;2022-10-31T22:43:58;12.52;;;7.57;;
20986;SDS011;10652;50.306;8.570;2022-10-31T22:48:00;13.32;;;8.18;;
20986;SDS011;10652;50.306;8.570;2022-10-31T22:52:03;16.35;;;8.63;;
20986;SDS011;10652;50.306;8.570;2022-10-31T22:56:07;11.93;;;8.18;;
20986;SDS011;10652;50.306;8.570;2022-10-31T23:00:10;16.50;;;9.43;;
20986;SDS011;10652;50.306;8.570;2022-10-31T23:04:13;13.95;;;8.40;;
20986;SDS011;10652;50.306;8.570;2022-10-31T23:08:17;18.50;;;9.05;;
20986;SDS011;10652;50.306;8.570;2022-10-31T23:12:19;14.00;;;8.32;;
20986;SDS011;10652;50.306;8.570;2022-10-31T23:16:44;15.38;;;8.77;;
20986;SDS011;10652;50.306;8.570;2022-10-31T23:20:52;11.80;;;8.48;;
20986;SDS011;10652;50.306;8.570;2022-10-31T23:24:55;16.30;;;8.60;;
20986;SDS011;10652;50.306;8.570;2022-10-31T23:28:57;11.75;;;8.10;;
20986;SDS011;10652;50.306;8.570;2022-10-31T23:32:59;13.02;;;7.85;;
20986;SDS011;10652;50.306;8.570;2022-10-31T23:37:02;14.60;;;7.75;;
20986;SDS011;10652;50.306;8.570;2022-10-31T23:41:04;15.32;;;8.15;;
20986;SDS011;10652;50.306;8.570;2022-10-31T23:45:06;13.30;;;7.90;;
20986;SDS011;10652;50.306;8.570;2022-10-31T23:49:09;16.08;;;7.65;;
20986;SDS011;10652;50.306;8.570;2022-10-31T23:53:11;11.43;;;6.97;;
20986;SDS011;10652;50.306;8.570;2022-10-31T23:57:13;12.73;;;7.13;;
